createdAt,value
2022-08-03T00:02:49.755Z,98445.59
2022-08-03T00:07:57.452Z,98442.88
2022-08-03T00:13:02.522Z,98434.31
2022-08-03T00:18:08.019Z,98437.91
2022-08-03T00:23:15.756Z,98438.53
2022-08-03T00:28:21.011Z,98442.94
2022-08-03T00:33:25.935Z,98430.81
2022-08-03T00:38:36.606Z,98445.28
2022-08-03T00:43:41.584Z,98442.81
2022-08-03T00:48:46.433Z,98443.63
2022-08-03T00:53:54.796Z,98445.75
2022-08-03T00:59:01.639Z,98441.97
2022-08-03T01:04:06.698Z,98440.75
2022-08-03T01:09:23.142Z,98440.34
2022-08-03T01:14:35.735Z,98440.75
2022-08-03T01:19:49.743Z,98444.13
2022-08-03T01:25:05.531Z,98437.81
2022-08-03T01:30:14.963Z,98433.22
2022-08-03T01:35:35.466Z,98438.25
2022-08-03T01:40:45.761Z,98434.47
2022-08-03T01:45:55.744Z,98434.91
2022-08-03T01:51:02.458Z,98432.81
2022-08-03T01:56:09.537Z,98437.84
2022-08-03T02:01:19.688Z,98416.44
2022-08-03T02:06:59.909Z,98432.59
2022-08-03T02:11:52.307Z,98434.06
2022-08-03T02:17:01.442Z,98427.34
2022-08-03T02:22:11.418Z,98425.22
2022-08-03T02:27:27.000Z,98418.50
2022-08-03T02:32:39.498Z,98418.09
2022-08-03T02:37:49.702Z,98413.47
2022-08-03T02:42:58.535Z,98414.94
2022-08-03T02:48:08.835Z,98422.69
2022-08-03T02:53:15.579Z,98421.81
2022-08-03T02:58:22.517Z,98418.03
2022-08-03T03:03:36.603Z,98420.97
2022-08-03T03:08:51.605Z,98412.78
2022-08-03T03:13:58.677Z,98412.59
2022-08-03T03:19:06.590Z,98403.97
2022-08-03T03:24:13.124Z,98409.19
2022-08-03T03:29:18.959Z,98408.97
2022-08-03T03:34:27.105Z,98411.25
2022-08-03T03:39:33.797Z,98410.19
2022-08-03T03:44:38.967Z,98412.06
2022-08-03T03:49:46.951Z,98410.78
2022-08-03T03:54:56.346Z,98410.34
2022-08-03T04:00:04.303Z,98413.47
2022-08-03T04:05:25.267Z,98410.13
2022-08-03T04:10:44.851Z,98406.94
2022-08-03T04:15:50.850Z,98412.59
2022-08-03T04:20:59.991Z,98420.13
2022-08-03T04:26:06.648Z,98417.59
2022-08-03T04:31:11.579Z,98425.94
2022-08-03T04:36:24.272Z,98426.81
2022-08-03T04:41:30.899Z,98428.50
2022-08-03T04:46:40.147Z,98434.53
2022-08-03T04:51:58.025Z,98432.47
2022-08-03T04:57:03.076Z,98443.00
2022-08-03T05:02:09.868Z,98432.31
2022-08-03T05:07:20.481Z,98440.72
2022-08-03T05:12:32.684Z,98446.84
2022-08-03T05:17:40.630Z,98446.44
2022-08-03T05:22:48.853Z,98441.66
2022-08-03T05:27:53.949Z,98440.41
2022-08-03T05:33:00.084Z,98448.00
2022-08-03T05:38:09.309Z,98445.53
2022-08-03T05:43:14.252Z,98443.22
2022-08-03T05:48:19.269Z,98444.94
2022-08-03T05:53:26.784Z,98449.38
2022-08-03T05:58:31.708Z,98459.44
2022-08-03T06:03:38.721Z,98457.13
2022-08-03T06:08:49.020Z,98460.47
2022-08-03T06:13:53.951Z,98452.47
2022-08-03T06:18:59.010Z,98455.97
2022-08-03T06:24:06.813Z,98450.06
2022-08-03T06:29:12.604Z,98444.31
2022-08-03T06:34:32.434Z,98450.72
2022-08-03T06:39:42.082Z,98458.81
2022-08-03T06:44:52.913Z,98453.25
2022-08-03T06:50:16.762Z,98453.66
2022-08-03T06:55:25.458Z,98453.06
2022-08-03T07:00:31.087Z,98447.25
2022-08-03T07:05:36.318Z,98447.44
2022-08-03T07:10:43.788Z,98454.50
2022-08-03T07:15:55.232Z,98450.59
2022-08-03T07:21:01.550Z,98446.19
2022-08-03T07:26:09.045Z,98455.19
2022-08-03T07:31:13.987Z,98447.31
2022-08-03T07:36:18.858Z,98454.75
2022-08-03T07:41:26.291Z,98451.44
2022-08-03T07:46:31.246Z,98451.19
2022-08-03T07:51:36.157Z,98447.94
2022-08-03T07:56:43.699Z,98446.75
2022-08-03T08:01:48.648Z,98436.84
2022-08-03T08:06:53.569Z,98447.16
2022-08-03T08:12:01.072Z,98435.22
2022-08-03T08:17:07.445Z,98432.44
2022-08-03T08:22:13.411Z,98420.41
2022-08-03T08:27:22.908Z,98429.16
2022-08-03T08:32:27.801Z,98423.56
2022-08-03T08:37:32.852Z,98424.44
2022-08-03T08:42:57.570Z,98422.78
2022-08-03T08:48:08.342Z,98434.00
2022-08-03T08:53:18.321Z,98424.84
2022-08-03T08:58:31.672Z,98427.22
2022-08-03T09:03:36.709Z,98428.19
2022-08-03T09:08:41.682Z,98426.88
2022-08-03T09:13:49.602Z,98420.38
2022-08-03T09:18:57.191Z,98420.94
2022-08-03T09:24:40.651Z,98409.94
2022-08-03T09:29:50.969Z,98408.88
2022-08-03T09:34:58.214Z,98410.28
2022-08-03T09:40:03.276Z,98402.25
2022-08-03T09:45:30.171Z,98405.06
2022-08-03T09:50:58.762Z,98391.75
2022-08-03T09:56:35.042Z,98392.59
2022-08-03T10:01:47.083Z,98393.09
2022-08-03T10:07:07.100Z,98390.06
2022-08-03T10:12:13.616Z,98373.63
2022-08-03T10:17:22.264Z,98379.94
2022-08-03T10:22:30.562Z,98375.19
2022-08-03T10:27:37.706Z,98365.16
2022-08-03T10:32:49.874Z,98372.13
2022-08-03T10:38:00.735Z,98358.75
2022-08-03T10:43:10.513Z,98355.38
2022-08-03T10:48:19.550Z,98348.09
2022-08-03T10:53:38.361Z,98343.38
2022-08-03T10:58:57.262Z,98337.59
2022-08-03T11:04:21.084Z,98346.09
2022-08-03T11:09:26.102Z,98350.94
2022-08-03T11:14:31.258Z,98339.84
2022-08-03T11:19:57.550Z,98340.03
2022-08-03T11:25:04.647Z,98340.69
2022-08-03T11:30:15.207Z,98338.31
2022-08-03T11:35:24.781Z,98329.78
2022-08-03T11:40:37.418Z,98331.50
2022-08-03T11:45:58.914Z,98329.38
2022-08-03T11:51:08.333Z,98324.09
2022-08-03T11:56:13.432Z,98307.97
2022-08-03T12:01:23.018Z,98315.19
2022-08-03T12:06:30.784Z,98306.16
2022-08-03T12:11:35.680Z,98302.72
2022-08-03T12:16:41.142Z,98294.41
2022-08-03T12:21:57.231Z,98297.69
2022-08-03T12:27:02.460Z,98288.41
2022-08-03T12:32:07.956Z,98278.25
2022-08-03T12:37:22.098Z,98263.34
2022-08-03T12:42:35.048Z,98273.81
2022-08-03T12:47:53.274Z,98259.22
2022-08-03T12:53:01.780Z,98262.00
2022-08-03T12:58:07.887Z,98252.72
2022-08-03T13:03:38.631Z,98251.00
2022-08-03T13:08:40.291Z,98250.13
2022-08-03T13:13:46.184Z,98244.25
2022-08-03T13:18:52.102Z,98253.53
2022-08-03T13:23:59.633Z,98246.09
2022-08-03T13:29:04.673Z,98255.34
2022-08-03T13:34:09.665Z,98244.97
2022-08-03T13:39:17.233Z,98233.59
2022-08-03T13:44:28.924Z,98227.97
2022-08-03T13:49:34.549Z,98226.41
2022-08-03T13:54:42.098Z,98218.69
2022-08-03T13:59:51.141Z,98219.41
2022-08-03T14:04:57.919Z,98203.81
2022-08-03T14:10:05.431Z,98199.44
2022-08-03T14:15:13.249Z,98200.91
2022-08-03T14:20:38.649Z,98201.38
2022-08-03T14:25:51.858Z,98197.38
2022-08-03T14:30:58.739Z,98196.03
2022-08-03T14:36:03.692Z,98194.72
2022-08-03T14:41:19.726Z,98187.50
2022-08-03T14:46:25.126Z,98187.25
2022-08-03T14:51:30.239Z,98181.81
2022-08-03T14:56:39.437Z,98186.88
2022-08-03T15:02:03.087Z,98178.00
2022-08-03T15:07:09.378Z,98172.84
2022-08-03T15:12:17.030Z,98163.41
2022-08-03T15:17:32.517Z,98150.53
2022-08-03T15:22:37.899Z,98144.84
2022-08-03T15:28:03.411Z,98152.63
2022-08-03T15:33:09.783Z,98138.88
2022-08-03T15:38:14.636Z,98139.06
2022-08-03T15:43:22.105Z,98133.88
2022-08-03T15:48:27.011Z,98128.91
2022-08-03T15:53:31.852Z,98124.44
2022-08-03T15:59:12.708Z,98136.59
2022-08-03T16:04:04.774Z,98145.13
2022-08-03T16:09:23.886Z,98150.97
2022-08-03T16:14:50.812Z,98142.97
2022-08-03T16:19:57.465Z,98135.34
2022-08-03T16:25:04.080Z,98127.56
2022-08-03T16:30:21.499Z,98131.69
2022-08-03T16:35:26.411Z,98134.16
2022-08-03T16:40:31.577Z,98134.34
2022-08-03T16:45:39.086Z,98141.06
2022-08-03T16:50:44.501Z,98137.13
2022-08-03T16:55:53.625Z,98138.44
2022-08-03T17:01:10.753Z,98143.03
2022-08-03T17:06:34.188Z,98135.63
2022-08-03T17:11:44.151Z,98138.69
2022-08-03T17:16:58.352Z,98141.59
2022-08-03T17:22:05.942Z,98144.28
2022-08-03T17:28:50.747Z,98147.97
2022-08-03T17:32:57.722Z,98146.53
2022-08-03T17:38:05.197Z,98149.34
2022-08-03T17:44:13.808Z,98153.78
2022-08-03T17:48:41.155Z,98148.53
2022-08-03T17:53:52.199Z,98153.28
2022-08-03T17:59:08.379Z,98148.94
2022-08-03T18:04:30.384Z,98154.31
2022-08-03T18:10:04.170Z,98157.81
2022-08-03T18:15:21.406Z,98167.09
2022-08-03T18:20:34.627Z,98176.72
2022-08-03T18:25:53.694Z,98176.28
2022-08-03T18:31:06.053Z,98173.81
2022-08-03T18:36:17.424Z,98173.56
2022-08-03T18:41:32.943Z,98168.81
2022-08-03T18:46:50.709Z,98173.38
2022-08-03T18:52:05.286Z,98178.88
2022-08-03T18:57:30.408Z,98177.28
2022-08-03T19:02:48.636Z,98169.25
2022-08-03T19:08:07.537Z,98187.31
2022-08-03T19:13:36.172Z,98179.72
2022-08-03T19:18:44.004Z,98188.31
2022-08-03T19:23:52.088Z,98185.53
2022-08-03T19:29:02.066Z,98194.50
2022-08-03T19:34:07.929Z,98199.09
2022-08-03T19:39:15.525Z,98197.84
2022-08-03T19:44:27.914Z,98199.59
2022-08-03T19:49:56.990Z,98206.00
2022-08-03T19:55:12.228Z,98207.50
2022-08-03T20:00:26.148Z,98201.19
2022-08-03T20:05:45.088Z,98206.19
2022-08-03T20:11:01.387Z,98208.78
2022-08-03T20:16:08.755Z,98202.97
2022-08-03T20:21:19.220Z,98203.53
2022-08-03T20:26:32.036Z,98200.22
2022-08-03T20:31:38.867Z,98202.47
2022-08-03T20:36:45.056Z,98202.97
2022-08-03T20:41:54.283Z,98209.63
2022-08-03T20:47:02.840Z,98213.75
2022-08-03T20:52:08.598Z,98204.63
2022-08-03T20:57:28.379Z,98203.78
2022-08-03T21:02:38.734Z,98203.41
2022-08-03T21:08:05.288Z,98200.06
2022-08-03T21:18:52.028Z,98201.09
2022-08-03T21:23:58.715Z,98203.25
2022-08-03T21:29:08.604Z,98206.44
2022-08-03T21:34:18.376Z,98208.88
2022-08-03T21:39:23.628Z,98202.38
2022-08-03T21:44:31.349Z,98195.13
2022-08-03T21:50:05.504Z,98196.72
2022-08-03T21:55:08.881Z,98200.47
2022-08-03T22:00:26.635Z,98191.56
2022-08-03T22:05:43.447Z,98192.56
2022-08-03T22:10:50.284Z,98190.53
2022-08-03T22:15:58.228Z,98191.56
2022-08-03T22:21:03.824Z,98187.03
2022-08-03T22:26:11.470Z,98186.13
2022-08-03T22:31:57.658Z,98192.06
2022-08-03T22:36:44.643Z,98195.78
2022-08-03T22:41:50.614Z,98190.69
2022-08-03T22:46:58.912Z,98199.34
2022-08-03T22:52:05.359Z,98198.13
2022-08-03T22:57:11.154Z,98201.00
2022-08-03T23:02:23.502Z,98199.16
2022-08-03T23:07:34.285Z,98200.44
2022-08-03T23:12:40.955Z,98200.88
2022-08-03T23:17:57.448Z,98200.22
2022-08-03T23:23:05.125Z,98200.63
2022-08-03T23:28:12.057Z,98202.41
2022-08-03T23:33:20.911Z,98193.66
2022-08-03T23:38:28.076Z,98196.25
2022-08-03T23:43:52.098Z,98199.63
2022-08-03T23:49:02.861Z,98200.28
2022-08-03T23:54:17.305Z,98196.53
2022-08-03T23:59:30.701Z,98204.34
